createdAt,value
2018-09-12T00:01:29.041Z,92.25
2018-09-12T00:03:57.464Z,92.70
2018-09-12T00:06:25.943Z,93.52
2018-09-12T00:08:54.010Z,93.72
2018-09-12T00:11:22.321Z,93.36
2018-09-12T00:13:50.602Z,93.02
2018-09-12T00:16:18.847Z,92.92
2018-09-12T00:18:47.112Z,93.60
2018-09-12T00:21:15.490Z,94.17
2018-09-12T00:23:43.633Z,94.07
2018-09-12T00:26:11.854Z,93.71
2018-09-12T00:28:40.029Z,94.69
2018-09-12T00:31:08.249Z,93.92
2018-09-12T00:33:36.360Z,94.21
2018-09-12T00:36:04.685Z,94.14
2018-09-12T00:38:33.044Z,94.58
2018-09-12T00:41:01.133Z,96.07
2018-09-12T00:43:29.328Z,96.08
2018-09-12T00:45:57.487Z,96.25
2018-09-12T00:48:25.831Z,95.68
2018-09-12T00:50:54.199Z,95.21
2018-09-12T00:53:22.355Z,95.19
2018-09-12T00:55:50.545Z,94.91
2018-09-12T00:58:18.715Z,95.44
2018-09-12T01:00:46.910Z,95.57
2018-09-12T01:03:15.006Z,96.00
2018-09-12T01:05:43.158Z,96.27
2018-09-12T01:08:12.715Z,96.27
2018-09-12T01:10:40.901Z,96.41
2018-09-12T01:13:09.479Z,95.67
2018-09-12T01:15:37.611Z,96.32
2018-09-12T01:18:05.861Z,97.01
2018-09-12T01:20:34.053Z,95.93
2018-09-12T01:23:02.201Z,96.94
2018-09-12T01:25:30.420Z,96.78
2018-09-12T01:27:58.560Z,97.68
2018-09-12T01:30:26.670Z,97.26
2018-09-12T01:32:56.171Z,97.67
2018-09-12T01:35:24.410Z,97.83
2018-09-12T01:37:52.618Z,97.71
2018-09-12T01:40:20.774Z,98.15
2018-09-12T01:42:48.915Z,98.38
2018-09-12T01:45:18.522Z,98.24
2018-09-12T01:47:46.859Z,98.15
2018-09-12T01:50:15.107Z,98.39
2018-09-12T01:52:43.466Z,97.44
2018-09-12T01:55:11.626Z,98.30
2018-09-12T01:57:39.802Z,97.62
2018-09-12T02:00:13.578Z,98.03
2018-09-12T02:02:42.105Z,98.41
2018-09-12T02:05:10.403Z,98.01
2018-09-12T02:07:38.685Z,98.29
2018-09-12T02:10:08.397Z,97.91
2018-09-12T02:12:36.728Z,98.26
2018-09-12T02:15:05.653Z,97.67
2018-09-12T02:17:33.849Z,99.41
2018-09-12T02:20:02.304Z,100.00
2018-09-12T02:22:30.454Z,99.62
2018-09-12T02:24:58.733Z,98.69
2018-09-12T02:27:26.929Z,98.30
2018-09-12T02:29:55.149Z,98.44
2018-09-12T02:32:23.365Z,98.73
2018-09-12T02:34:51.511Z,99.66
2018-09-12T02:37:19.620Z,99.43
2018-09-12T02:39:47.743Z,99.55
2018-09-12T02:42:15.904Z,100.00
2018-09-12T02:44:44.069Z,100.00
2018-09-12T02:47:17.641Z,100.00
2018-09-12T02:49:45.847Z,100.00
2018-09-12T02:52:14.169Z,100.00
2018-09-12T02:54:42.257Z,100.00
2018-09-12T02:57:11.094Z,100.00
2018-09-12T02:59:39.291Z,100.00
2018-09-12T03:02:07.402Z,100.00
2018-09-12T03:04:35.539Z,100.00
2018-09-12T03:07:03.703Z,100.00
2018-09-12T03:09:32.742Z,100.00
2018-09-12T03:12:00.902Z,100.00
2018-09-12T03:14:29.101Z,100.00
2018-09-12T03:16:57.360Z,100.00
2018-09-12T03:19:25.554Z,100.00
2018-09-12T03:21:53.670Z,100.00
2018-09-12T03:24:21.929Z,100.00
2018-09-12T03:26:50.688Z,100.00
2018-09-12T03:29:18.872Z,100.00
2018-09-12T03:31:47.166Z,100.00
2018-09-12T03:34:16.199Z,100.00
2018-09-12T03:36:45.057Z,100.00
2018-09-12T03:39:13.302Z,100.00
2018-09-12T03:41:41.920Z,100.00
2018-09-12T03:44:11.128Z,100.00
2018-09-12T03:46:40.054Z,100.00
2018-09-12T03:49:08.076Z,100.00
2018-09-12T03:51:37.092Z,100.00
2018-09-12T03:54:05.128Z,100.00
2018-09-12T03:56:34.036Z,100.00
2018-09-12T03:59:02.184Z,100.00
2018-09-12T04:01:30.316Z,99.71
2018-09-12T04:03:58.407Z,100.00
2018-09-12T04:06:27.609Z,100.00
2018-09-12T04:08:55.726Z,100.00
2018-09-12T04:11:23.868Z,100.00
2018-09-12T04:13:51.905Z,100.00
2018-09-12T04:16:20.001Z,100.00
2018-09-12T04:18:48.214Z,100.00
2018-09-12T04:21:17.112Z,100.00
2018-09-12T04:23:45.164Z,100.00
2018-09-12T04:26:13.659Z,100.00
2018-09-12T04:28:42.131Z,100.00
2018-09-12T04:31:10.247Z,100.00
2018-09-12T04:33:38.256Z,100.00
2018-09-12T04:36:06.458Z,99.73
2018-09-12T04:38:34.596Z,97.29
2018-09-12T04:41:02.797Z,94.61
2018-09-12T04:43:31.281Z,90.00
2018-09-12T04:45:59.568Z,87.13
2018-09-12T04:48:28.341Z,87.06
2018-09-12T04:50:57.095Z,83.95
2018-09-12T04:53:25.865Z,82.73
2018-09-12T04:55:54.011Z,82.67
2018-09-12T04:58:22.157Z,84.40
2018-09-12T05:00:50.572Z,84.27
2018-09-12T05:03:19.624Z,83.93
2018-09-12T05:05:47.840Z,84.33
2018-09-12T05:08:17.150Z,80.61
2018-09-12T05:10:45.318Z,79.16
2018-09-12T05:13:13.842Z,78.38
2018-09-12T05:15:42.057Z,78.30
2018-09-12T05:18:10.989Z,78.86
2018-09-12T05:20:39.112Z,78.37
2018-09-12T05:23:07.350Z,78.40
2018-09-12T05:25:36.533Z,78.46
2018-09-12T05:28:04.694Z,79.15
2018-09-12T05:30:32.858Z,78.06
2018-09-12T05:33:01.195Z,77.37
2018-09-12T05:35:29.775Z,76.12
2018-09-12T05:37:57.976Z,75.72
2018-09-12T05:40:26.425Z,77.94
2018-09-12T05:42:54.844Z,76.88
2018-09-12T05:45:23.186Z,76.65
2018-09-12T05:47:51.377Z,75.14
2018-09-12T05:50:19.696Z,75.50
2018-09-12T05:52:47.827Z,75.62
2018-09-12T05:55:15.950Z,76.54
2018-09-12T05:57:43.966Z,77.31
2018-09-12T06:00:12.123Z,78.08
2018-09-12T06:02:40.363Z,78.01
2018-09-12T06:05:08.559Z,76.69
2018-09-12T06:07:36.700Z,77.10
2018-09-12T06:10:05.141Z,76.36
2018-09-12T06:12:33.296Z,77.45
2018-09-12T06:15:02.359Z,79.43
2018-09-12T06:17:31.589Z,77.75
2018-09-12T06:19:59.943Z,77.67
2018-09-12T06:22:28.106Z,75.57
2018-09-12T06:24:56.208Z,73.57
2018-09-12T06:27:24.378Z,74.91
2018-09-12T06:29:52.891Z,73.09
2018-09-12T06:32:21.175Z,73.77
2018-09-12T06:34:49.390Z,73.98
2018-09-12T06:37:17.905Z,73.24
2018-09-12T06:39:46.228Z,72.09
2018-09-12T06:42:14.448Z,70.29
2018-09-12T06:44:42.583Z,73.24
2018-09-12T06:47:10.825Z,70.90
2018-09-12T06:49:39.047Z,69.88
2018-09-12T06:52:07.351Z,69.98
2018-09-12T06:54:35.835Z,69.33
2018-09-12T06:57:04.032Z,66.73
2018-09-12T06:59:32.443Z,66.30
2018-09-12T07:02:00.615Z,65.20
2018-09-12T07:04:28.725Z,62.87
2018-09-12T07:06:56.928Z,61.14
2018-09-12T07:09:25.092Z,60.44
2018-09-12T07:11:53.357Z,60.84
2018-09-12T07:14:21.549Z,59.16
2018-09-12T07:16:49.648Z,59.13
2018-09-12T07:19:17.727Z,57.63
2018-09-12T07:21:46.046Z,57.68
2018-09-12T07:24:14.182Z,57.21
2018-09-12T07:26:43.429Z,57.72
2018-09-12T07:29:11.533Z,57.86
2018-09-12T07:31:39.646Z,58.34
2018-09-12T07:34:08.041Z,57.86
2018-09-12T07:36:36.308Z,57.53
2018-09-12T07:39:08.208Z,57.21
2018-09-12T07:41:36.984Z,54.37
2018-09-12T07:44:05.242Z,55.29
2018-09-12T07:46:34.096Z,53.38
2018-09-12T07:49:02.214Z,55.11
2018-09-12T07:51:30.604Z,54.15
2018-09-12T07:53:59.416Z,52.89
2018-09-12T07:56:27.960Z,53.13
2018-09-12T07:58:56.472Z,50.41
2018-09-12T08:01:25.680Z,52.56
2018-09-12T08:03:54.785Z,52.98
2018-09-12T08:06:23.102Z,50.88
2018-09-12T08:11:48.296Z,50.19
2018-09-12T08:14:16.503Z,49.67
2018-09-12T08:16:44.687Z,49.15
2018-09-12T08:19:12.913Z,48.84
2018-09-12T08:21:41.245Z,46.61
2018-09-12T08:24:09.716Z,47.03
2018-09-12T08:26:38.027Z,45.08
2018-09-12T08:29:06.236Z,46.82
2018-09-12T08:31:34.696Z,45.71
2018-09-12T08:34:03.215Z,43.79
2018-09-12T08:36:31.650Z,44.92
2018-09-12T08:39:00.152Z,43.34
2018-09-12T08:41:29.461Z,42.78
2018-09-12T08:43:57.666Z,40.76
2018-09-12T08:46:26.278Z,42.96
2018-09-12T08:48:55.023Z,42.86
2018-09-12T08:51:23.602Z,41.29
2018-09-12T08:53:51.873Z,41.44
2018-09-12T08:56:20.232Z,43.44
2018-09-12T08:58:48.612Z,41.65
2018-09-12T09:01:16.918Z,41.06
2018-09-12T09:03:45.093Z,39.31
2018-09-12T09:06:13.296Z,39.51
2018-09-12T09:08:41.596Z,41.07
2018-09-12T09:11:09.826Z,38.16
2018-09-12T09:13:38.362Z,38.22
2018-09-12T09:16:06.922Z,36.94
2018-09-12T09:18:35.071Z,36.64
2018-09-12T09:21:03.722Z,36.87
2018-09-12T09:23:32.273Z,39.51
2018-09-12T09:26:00.429Z,38.56
2018-09-12T09:28:29.551Z,39.36
2018-09-12T09:30:57.693Z,38.90
2018-09-12T09:33:25.860Z,38.56
2018-09-12T09:35:54.261Z,38.87
2018-09-12T09:38:22.427Z,39.25
2018-09-12T09:40:50.639Z,37.86
2018-09-12T09:43:18.863Z,36.57
2018-09-12T09:45:47.111Z,37.30
2018-09-12T09:48:15.485Z,38.55
2018-09-12T09:50:43.812Z,37.48
2018-09-12T09:53:12.352Z,36.72
2018-09-12T09:55:40.680Z,37.66
2018-09-12T09:58:08.832Z,37.94
2018-09-12T10:00:43.137Z,38.02
2018-09-12T10:03:16.822Z,38.26
2018-09-12T10:05:50.637Z,36.45
2018-09-12T10:08:24.277Z,35.92
2018-09-12T10:10:52.475Z,34.42
2018-09-12T10:13:20.728Z,34.28
2018-09-12T10:15:48.996Z,34.56
2018-09-12T10:18:17.178Z,37.49
2018-09-12T10:20:45.604Z,36.74
2018-09-12T10:23:13.998Z,35.44
2018-09-12T10:25:42.317Z,37.64
2018-09-12T10:28:10.446Z,36.54
2018-09-12T10:30:38.743Z,37.51
2018-09-12T10:33:06.891Z,35.79
2018-09-12T10:35:35.083Z,37.34
2018-09-12T10:38:03.393Z,34.86
2018-09-12T10:40:31.819Z,35.72
2018-09-12T10:43:00.158Z,37.42
2018-09-12T10:45:28.645Z,36.54
2018-09-12T10:47:56.804Z,36.50
2018-09-12T10:50:25.079Z,38.61
2018-09-12T10:52:53.292Z,39.11
2018-09-12T10:55:21.677Z,39.30
2018-09-12T10:57:50.042Z,37.51
2018-09-12T11:00:18.281Z,38.21
2018-09-12T11:02:46.394Z,37.12
2018-09-12T11:05:14.743Z,37.00
2018-09-12T11:07:42.989Z,37.46
2018-09-12T11:10:11.350Z,38.65
2018-09-12T11:12:39.767Z,37.25
2018-09-12T11:15:08.206Z,37.98
2018-09-12T11:17:36.445Z,37.97
2018-09-12T11:20:05.417Z,36.97
2018-09-12T11:22:33.659Z,36.44
2018-09-12T11:25:01.806Z,37.06
2018-09-12T11:27:29.997Z,36.61
2018-09-12T11:29:58.084Z,36.52
2018-09-12T11:32:26.263Z,35.52
2018-09-12T11:34:54.527Z,36.95
2018-09-12T11:37:22.739Z,35.27
2018-09-12T11:39:51.101Z,35.14
2018-09-12T11:42:19.887Z,34.54
2018-09-12T11:44:48.147Z,33.85
2018-09-12T11:47:16.411Z,33.91
2018-09-12T11:49:44.669Z,32.46
2018-09-12T11:52:13.246Z,33.48
2018-09-12T11:54:41.546Z,35.68
2018-09-12T11:57:09.885Z,34.58
2018-09-12T11:59:38.026Z,35.60
2018-09-12T12:02:06.392Z,35.72
2018-09-12T12:04:34.657Z,32.28
2018-09-12T12:07:03.026Z,34.19
2018-09-12T12:09:32.231Z,33.49
2018-09-12T12:12:00.614Z,33.09
2018-09-12T12:14:28.800Z,32.66
2018-09-12T12:16:57.404Z,34.07
2018-09-12T12:19:25.519Z,33.84
2018-09-12T12:21:53.743Z,34.77
2018-09-12T12:24:22.114Z,33.56
2018-09-12T12:26:51.090Z,34.75
2018-09-12T12:29:20.347Z,34.17
2018-09-12T12:31:48.534Z,35.13
2018-09-12T12:34:16.681Z,36.79
2018-09-12T12:36:44.873Z,35.94
2018-09-12T12:39:13.214Z,34.21
2018-09-12T12:41:41.364Z,33.69
2018-09-12T12:44:09.634Z,33.54
2018-09-12T12:46:38.003Z,32.91
2018-09-12T12:49:06.190Z,33.17
2018-09-12T12:51:34.325Z,34.24
2018-09-12T12:54:02.586Z,33.98
2018-09-12T12:56:30.903Z,34.01
2018-09-12T12:58:59.213Z,33.88
2018-09-12T13:01:27.441Z,34.40
2018-09-12T13:03:55.974Z,33.69
2018-09-12T13:06:24.639Z,35.00
2018-09-12T13:08:53.620Z,35.44
2018-09-12T13:11:22.004Z,36.04
2018-09-12T13:13:51.407Z,35.82
2018-09-12T13:16:20.575Z,36.95
2018-09-12T13:18:49.044Z,37.87
2018-09-12T13:21:17.411Z,38.20
2018-09-12T13:23:45.589Z,37.39
2018-09-12T13:26:13.778Z,36.20
2018-09-12T13:28:41.857Z,37.20
2018-09-12T13:31:10.062Z,36.36
2018-09-12T13:33:38.270Z,35.89
2018-09-12T13:36:06.542Z,37.41
2018-09-12T13:38:34.782Z,36.50
2018-09-12T13:41:03.007Z,38.29
2018-09-12T13:43:31.362Z,38.12
2018-09-12T13:45:59.629Z,39.49
2018-09-12T13:48:27.851Z,39.03
2018-09-12T13:50:55.968Z,39.80
2018-09-12T13:53:24.078Z,38.32
2018-09-12T13:55:52.404Z,37.61
2018-09-12T13:58:20.629Z,38.02
2018-09-12T14:00:49.137Z,36.32
2018-09-12T14:03:17.565Z,37.09
2018-09-12T14:05:45.779Z,38.49
2018-09-12T14:08:14.208Z,38.19
2018-09-12T14:10:42.376Z,38.56
2018-09-12T14:13:10.684Z,39.54
2018-09-12T14:15:38.928Z,39.66
2018-09-12T14:18:07.584Z,39.36
2018-09-12T14:20:35.802Z,38.96
2018-09-12T14:23:04.032Z,39.79
2018-09-12T14:25:32.284Z,38.24
2018-09-12T14:28:00.474Z,38.79
2018-09-12T14:30:28.602Z,39.74
2018-09-12T14:32:56.753Z,39.24
2018-09-12T14:35:24.945Z,39.46
2018-09-12T14:37:53.044Z,40.56
2018-09-12T14:40:22.422Z,41.17
2018-09-12T14:42:50.825Z,41.29
2018-09-12T14:45:19.007Z,41.60
2018-09-12T14:47:47.272Z,42.28
2018-09-12T14:50:15.458Z,42.25
2018-09-12T14:52:43.614Z,42.62
2018-09-12T14:55:11.744Z,42.19
2018-09-12T14:57:40.172Z,42.61
2018-09-12T15:00:08.565Z,41.96
2018-09-12T15:02:37.030Z,42.06
2018-09-12T15:05:05.365Z,41.66
2018-09-12T15:07:33.621Z,42.29
2018-09-12T15:10:01.788Z,42.50
2018-09-12T15:12:30.034Z,43.49
2018-09-12T15:14:58.127Z,44.06
2018-09-12T15:17:26.235Z,43.77
2018-09-12T15:19:54.282Z,43.65
2018-09-12T15:22:22.478Z,43.26
2018-09-12T15:24:50.717Z,44.56
2018-09-12T15:27:18.943Z,43.75
2018-09-12T15:29:47.295Z,43.26
2018-09-12T15:32:15.912Z,44.63
2018-09-12T15:34:45.028Z,45.73
2018-09-12T15:37:13.781Z,44.72
2018-09-12T15:39:42.378Z,43.82
2018-09-12T15:42:10.759Z,43.88
2018-09-12T15:44:39.097Z,44.93
2018-09-12T15:47:08.613Z,44.21
2018-09-12T15:49:37.053Z,44.36
2018-09-12T15:52:05.697Z,43.36
2018-09-12T15:54:34.238Z,43.42
2018-09-12T15:57:02.606Z,43.38
2018-09-12T15:59:30.860Z,43.84
2018-09-12T16:01:59.286Z,43.14
2018-09-12T16:04:27.850Z,43.47
2018-09-12T16:06:56.224Z,43.48
2018-09-12T16:09:24.461Z,43.75
2018-09-12T16:11:52.771Z,43.81
2018-09-12T16:14:20.998Z,43.69
2018-09-12T16:16:49.114Z,43.50
2018-09-12T16:19:18.146Z,44.13
2018-09-12T16:21:46.307Z,43.87
2018-09-12T16:24:14.468Z,44.12
2018-09-12T16:26:42.621Z,44.13
2018-09-12T16:29:10.898Z,44.83
2018-09-12T16:31:39.481Z,45.71
2018-09-12T16:34:07.700Z,46.75
2018-09-12T16:36:36.114Z,48.00
2018-09-12T16:39:08.063Z,47.97
2018-09-12T16:41:36.400Z,48.59
2018-09-12T16:44:05.017Z,50.42
2018-09-12T16:46:34.580Z,51.57
2018-09-12T16:49:03.243Z,52.28
2018-09-12T16:51:31.537Z,51.90
2018-09-12T16:54:00.335Z,53.25
2018-09-12T16:56:29.782Z,54.14
2018-09-12T16:58:59.485Z,54.74
2018-09-12T17:01:27.862Z,56.28
2018-09-12T17:03:56.975Z,56.39
2018-09-12T17:06:25.590Z,55.87
2018-09-12T17:08:53.797Z,57.08
2018-09-12T17:11:22.077Z,57.22
2018-09-12T17:13:50.305Z,56.75
2018-09-12T17:16:19.656Z,57.22
2018-09-12T17:18:50.992Z,57.99
2018-09-12T17:21:24.219Z,59.65
2018-09-12T17:23:56.248Z,59.23
2018-09-12T17:26:24.864Z,58.88
2018-09-12T17:28:53.129Z,57.11
2018-09-12T17:31:22.343Z,57.94
2018-09-12T17:33:53.312Z,58.42
2018-09-12T17:36:25.269Z,57.27
2018-09-12T17:38:54.741Z,58.93
2018-09-12T17:41:24.249Z,60.68
2018-09-12T17:43:55.438Z,61.53
2018-09-12T17:46:26.464Z,61.46
2018-09-12T17:48:55.948Z,62.58
2018-09-12T17:51:25.359Z,63.43
2018-09-12T17:53:56.193Z,63.01
2018-09-12T17:56:24.847Z,63.01
2018-09-12T17:58:53.041Z,62.92
2018-09-12T18:01:22.268Z,63.46
2018-09-12T18:03:50.910Z,62.76
2018-09-12T18:06:20.502Z,64.16
2018-09-12T18:08:49.504Z,64.41
2018-09-12T18:11:18.177Z,65.18
2018-09-12T18:13:46.656Z,65.75
2018-09-12T18:16:14.878Z,65.43
2018-09-12T18:18:43.384Z,65.20
2018-09-12T18:21:12.807Z,65.48
2018-09-12T18:23:41.073Z,66.47
2018-09-12T18:26:09.492Z,66.92
2018-09-12T18:28:37.810Z,66.08
2018-09-12T18:31:06.173Z,66.03
2018-09-12T18:33:34.407Z,67.99
2018-09-12T18:36:03.100Z,67.46
2018-09-12T18:38:31.581Z,66.92
2018-09-12T18:41:00.043Z,66.64
2018-09-12T18:43:28.324Z,67.50
2018-09-12T18:45:56.661Z,68.68
2018-09-12T18:48:25.227Z,68.72
2018-09-12T18:50:53.665Z,67.88
2018-09-12T18:53:21.932Z,69.15
2018-09-12T18:55:50.357Z,68.14
2018-09-12T18:58:20.721Z,69.46
2018-09-12T19:00:49.131Z,69.38
2018-09-12T19:03:17.584Z,69.67
2018-09-12T19:05:46.215Z,69.95
2018-09-12T19:08:14.667Z,70.07
2018-09-12T19:10:43.195Z,70.27
2018-09-12T19:13:11.808Z,69.69
2018-09-12T19:15:40.274Z,70.31
2018-09-12T19:18:08.959Z,71.01
2018-09-12T19:20:37.140Z,69.74
2018-09-12T19:23:05.597Z,71.00
2018-09-12T19:25:33.978Z,70.68
2018-09-12T19:28:02.273Z,71.40
2018-09-12T19:30:30.898Z,71.37
2018-09-12T19:32:59.222Z,71.59
2018-09-12T19:35:28.003Z,71.17
2018-09-12T19:37:56.245Z,71.99
2018-09-12T19:40:24.432Z,71.67
2018-09-12T19:42:52.665Z,71.53
2018-09-12T19:45:20.834Z,72.81
2018-09-12T19:47:48.994Z,72.70
2018-09-12T19:50:17.215Z,72.24
2018-09-12T19:52:45.321Z,72.85
2018-09-12T19:55:13.721Z,71.21
2018-09-12T19:57:41.971Z,73.20
2018-09-12T20:00:16.651Z,72.14
2018-09-12T20:02:44.903Z,72.65
2018-09-12T20:05:13.482Z,72.99
2018-09-12T20:07:42.039Z,73.88
2018-09-12T20:10:10.677Z,73.29
2018-09-12T20:12:38.852Z,72.66
2018-09-12T20:15:07.287Z,72.83
2018-09-12T20:17:35.534Z,73.42
2018-09-12T20:20:04.102Z,72.84
2018-09-12T20:22:33.104Z,72.95
2018-09-12T20:25:01.323Z,73.22
2018-09-12T20:27:29.626Z,73.40
2018-09-12T20:29:58.104Z,72.90
2018-09-12T20:32:26.446Z,73.50
2018-09-12T20:34:54.698Z,72.26
2018-09-12T20:37:22.973Z,73.73
2018-09-12T20:39:51.236Z,73.06
2018-09-12T20:42:19.417Z,72.68
2018-09-12T20:44:47.696Z,72.68
2018-09-12T20:47:16.324Z,73.18
2018-09-12T20:49:44.607Z,73.38
2018-09-12T20:52:12.807Z,73.40
2018-09-12T20:54:41.097Z,75.01
2018-09-12T20:57:09.657Z,73.50
2018-09-12T20:59:37.880Z,73.60
2018-09-12T21:02:06.233Z,73.22
2018-09-12T21:04:34.481Z,72.94
2018-09-12T21:07:03.165Z,74.17
2018-09-12T21:09:31.289Z,74.40
2018-09-12T21:11:59.468Z,74.40
2018-09-12T21:14:27.705Z,73.59
2018-09-12T21:16:55.903Z,74.80
2018-09-12T21:19:24.155Z,75.32
2018-09-12T21:21:52.627Z,75.46
2018-09-12T21:24:20.831Z,75.65
2018-09-12T21:26:49.211Z,76.08
2018-09-12T21:29:17.385Z,75.91
2018-09-12T21:31:45.541Z,77.31
2018-09-12T21:34:13.768Z,76.58
2018-09-12T21:36:42.059Z,76.04
2018-09-12T21:39:10.693Z,75.67
2018-09-12T21:41:38.924Z,75.20
2018-09-12T21:44:07.081Z,75.49
2018-09-12T21:46:35.266Z,76.36
2018-09-12T21:49:03.323Z,76.23
2018-09-12T21:51:31.358Z,75.89
2018-09-12T21:53:59.557Z,76.87
2018-09-12T21:56:27.725Z,77.27
2018-09-12T21:58:56.005Z,77.70
2018-09-12T22:01:24.923Z,76.37
2018-09-12T22:03:53.611Z,75.52
2018-09-12T22:06:22.049Z,77.10
2018-09-12T22:08:50.215Z,77.05
2018-09-12T22:11:18.254Z,77.38
2018-09-12T22:13:46.307Z,77.78
2018-09-12T22:16:14.288Z,77.35
2018-09-12T22:18:42.368Z,77.24
2018-09-12T22:21:10.607Z,77.24
2018-09-12T22:23:38.757Z,77.96
2018-09-12T22:26:06.838Z,77.32
2018-09-12T22:28:34.902Z,77.35
2018-09-12T22:31:02.921Z,78.31
2018-09-12T22:33:30.992Z,77.76
2018-09-12T22:35:59.127Z,78.72
2018-09-12T22:38:27.160Z,78.46
2018-09-12T22:40:55.175Z,78.83
2018-09-12T22:43:23.298Z,79.78
2018-09-12T22:45:51.382Z,79.24
2018-09-12T22:48:19.519Z,78.93
2018-09-12T22:50:47.609Z,78.05
2018-09-12T22:53:15.704Z,77.52
2018-09-12T22:55:43.751Z,78.64
2018-09-12T22:58:11.920Z,77.96
2018-09-12T23:00:40.047Z,79.30
2018-09-12T23:03:08.114Z,79.72
2018-09-12T23:05:36.136Z,79.99
2018-09-12T23:08:04.256Z,79.53
2018-09-12T23:10:32.354Z,78.84
2018-09-12T23:13:00.392Z,79.71
2018-09-12T23:15:28.428Z,79.33
2018-09-12T23:17:56.631Z,80.08
2018-09-12T23:20:24.617Z,81.03
2018-09-12T23:22:52.642Z,79.92
2018-09-12T23:25:20.736Z,80.19
2018-09-12T23:27:48.830Z,80.65
2018-09-12T23:30:16.901Z,80.37
2018-09-12T23:32:44.899Z,80.50
2018-09-12T23:35:13.044Z,80.33
2018-09-12T23:37:41.391Z,79.93
2018-09-12T23:40:09.393Z,79.35
2018-09-12T23:42:37.422Z,79.57
2018-09-12T23:45:05.524Z,81.03
2018-09-12T23:47:34.730Z,82.92
2018-09-12T23:50:02.887Z,82.47
2018-09-12T23:52:31.086Z,82.20
2018-09-12T23:54:59.054Z,82.58
2018-09-12T23:57:27.129Z,82.83
2018-09-12T23:59:55.167Z,83.09
